| time (UTC) | temp F | wind direction | speed knots | gust knots | rain 1hr in | rain 24hr in | rain mn in | humidity % | barometer mb |
| 20260510081534 | 47 | 292 | 0.0 | 0.0 | 0.00 | 0.00 | 0.00 | 93 | 1017.0 |
| 20260510080027 | 47 | 293 | 0.0 | 0.0 | 0.00 | 0.00 | 0.00 | 93 | 1017.1 |
| 20260510074504 | 48 | 292 | 0.0 | 0.0 | 0.00 | 0.00 | 0.00 | 92 | 1017.0 |
| 20260510073008 | 49 | 292 | 0.0 | 0.0 | 0.00 | 0.00 | 0.00 | 92 | 1016.8 |
| 20260510071515 | 49 | 292 | 0.0 | 0.0 | 0.00 | 0.00 | 0.00 | 92 | 1016.8 |
| 20260510070023 | 49 | 292 | 0.0 | 0.0 | 0.00 | 0.00 | 0.00 | 92 | 1016.7 |
| 20260510064525 | 50 | 292 | 0.0 | 0.0 | 0.00 | 0.00 | 0.00 | 90 | 1016.7 |
| 20260510063008 | 50 | 293 | 0.0 | 0.0 | 0.00 | 0.00 | 0.00 | 91 | 1016.7 |
| 20260510061514 | 51 | 292 | 0.0 | 0.0 | 0.00 | 0.00 | 0.00 | 90 | 1016.7 |
| 20260510060033 | 52 | 292 | 0.0 | 0.0 | 0.00 | 0.00 | 0.00 | 89 | 1016.6 |
| 20260510054524 | 52 | 292 | 0.0 | 0.0 | 0.00 | 0.00 | 0.00 | 89 | 1016.6 |
| 20260510053036 | 53 | 292 | 0.0 | 0.0 | 0.00 | 0.00 | 0.00 | 88 | 1016.6 |
| 20260510051509 | 54 | 293 | 0.0 | 0.0 | 0.00 | 0.00 | 0.00 | 87 | 1016.7 |
| 20260510050012 | 54 | 293 | 0.0 | 0.0 | 0.00 | 0.00 | 0.00 | 85 | 1016.7 |
| 20260510044533 | 55 | 292 | 0.0 | 0.0 | 0.00 | 0.00 | 0.00 | 84 | 1016.5 |
| 20260510043024 | 56 | 292 | 0.0 | 0.0 | 0.00 | 0.00 | 0.00 | 83 | 1016.4 |
| 20260510041523 | 58 | 292 | 0.0 | 0.0 | 0.00 | 0.00 | 0.00 | 82 | 1016.3 |
| 20260510040015 | 59 | 292 | 0.0 | 0.9 | 0.00 | 0.00 | 0.00 | 80 | 1016.3 |
| 20260510034516 | 60 | 293 | 0.0 | 0.0 | 0.00 | 0.00 | 0.00 | 77 | 1016.0 |
| 20260510033020 | 62 | 293 | 0.0 | 0.0 | 0.00 | 0.00 | 0.00 | 75 | 1016.1 |
| 20260510031524 | 64 | 293 | 0.0 | 0.9 | 0.00 | 0.00 | 0.00 | 73 | 1016.1 |
| 20260510030026 | 65 | 293 | 0.0 | 0.9 | 0.00 | 0.00 | 0.00 | 68 | 1015.9 |
| 20260510024512 | 67 | 293 | 0.0 | 0.0 | 0.00 | 0.00 | 0.00 | 63 | 1015.9 |
| 20260510023016 | 68 | 292 | 0.0 | 0.9 | 0.00 | 0.00 | 0.00 | 62 | 1015.8 |
| 20260510021522 | 69 | 293 | 0.0 | 0.9 | 0.00 | 0.00 | 0.00 | 58 | 1015.8 |
| 20260510020027 | 70 | 293 | 0.0 | 0.9 | 0.00 | 0.00 | 0.00 | 54 | 1015.9 |
| 20260510014531 | 71 | 282 | 0.9 | 2.6 | 0.00 | 0.00 | 0.00 | 53 | 1016.0 |
| 20260510013016 | 71 | 287 | 0.0 | 2.6 | 0.00 | 0.00 | 0.00 | 52 | 1016.1 |
| 20260510011520 | 72 | 279 | 0.0 | 1.7 | 0.00 | 0.00 | 0.00 | 51 | 1016.2 |
| 20260510010027 | 72 | 270 | 0.0 | 4.3 | 0.00 | 0.00 | 0.00 | 50 | 1016.3 |
| 20260510004524 | 73 | 278 | 0.0 | 2.6 | 0.00 | 0.00 | 0.00 | 49 | 1016.6 |
| 20260510003012 | 73 | 293 | 1.7 | 4.3 | 0.00 | 0.00 | 0.00 | 47 | 1016.6 |
| 20260510001517 | 74 | 351 | 1.7 | 5.2 | 0.00 | 0.00 | 0.00 | 47 | 1016.8 |
| 20260510000020 | 74 | 44 | 0.9 | 6.1 | 0.00 | 0.00 | 0.00 | 46 | 1016.9 |
| 20260509234511 | 75 | 282 | 0.9 | 4.3 | 0.00 | 0.00 | 0.00 | 46 | 1017.0 |
| 20260509233010 | 76 | 35 | 1.7 | 7.0 | 0.00 | 0.00 | 0.00 | 45 | 1017.1 |
| 20260509231519 | 75 | 286 | 0.9 | 4.3 | 0.00 | 0.00 | 0.00 | 46 | 1017.3 |
| 20260509230022 | 75 | 24 | 0.9 | 4.3 | 0.00 | 0.00 | 0.00 | 45 | 1017.4 |
| 20260509224521 | 75 | 359 | 0.0 | 2.6 | 0.00 | 0.00 | 0.00 | 43 | 1017.6 |
| 20260509223010 | 75 | 252 | 0.9 | 6.1 | 0.00 | 0.00 | 0.00 | 43 | 1017.7 |
| 20260509221514 | 74 | 284 | 2.6 | 6.1 | 0.00 | 0.00 | 0.00 | 43 | 1018.1 |
| 20260509220019 | 74 | 19 | 0.9 | 3.5 | 0.00 | 0.00 | 0.00 | 46 | 1018.3 |
| 20260509214524 | 74 | 288 | 1.7 | 3.5 | 0.00 | 0.00 | 0.00 | 44 | 1018.4 |
| 20260509213026 | 74 | 324 | 0.9 | 3.5 | 0.00 | 0.00 | 0.00 | 47 | 1018.6 |
| 20260509211510 | 74 | 351 | 0.9 | 2.6 | 0.00 | 0.00 | 0.00 | 48 | 1018.7 |
| 20260509210019 | 72 | 300 | 1.7 | 4.3 | 0.00 | 0.00 | 0.00 | 50 | 1018.9 |
| 20260509204517 | 72 | 294 | 0.0 | 1.7 | 0.00 | 0.00 | 0.00 | 51 | 1018.8 |
| 20260509203028 | 72 | 321 | 0.9 | 4.3 | 0.00 | 0.00 | 0.00 | 49 | 1019.0 |
| 20260509201526 | 72 | 346 | 0.9 | 5.2 | 0.00 | 0.00 | 0.00 | 49 | 1019.0 |
| 20260509200014 | 73 | 255 | 0.9 | 3.5 | 0.00 | 0.00 | 0.00 | 50 | 1019.3 |
| 20260509194516 | 72 | 228 | 0.9 | 2.6 | 0.00 | 0.00 | 0.00 | 49 | 1019.5 |
| 20260509193020 | 71 | 309 | 0.9 | 3.5 | 0.00 | 0.00 | 0.00 | 50 | 1019.7 |
| 20260509191525 | 71 | 5 | 0.9 | 3.5 | 0.00 | 0.00 | 0.00 | 53 | 1020.1 |
| 20260509190028 | 69 | 307 | 0.9 | 4.3 | 0.00 | 0.00 | 0.00 | 54 | 1020.2 |
| 20260509184515 | 68 | 340 | 0.0 | 4.3 | 0.00 | 0.00 | 0.00 | 55 | 1020.5 |
| 20260509183020 | 67 | 356 | 0.9 | 5.2 | 0.00 | 0.00 | 0.00 | 57 | 1020.7 |
| 20260509181521 | 67 | 196 | 0.9 | 2.6 | 0.00 | 0.00 | 0.00 | 60 | 1020.9 |
| 20260509180028 | 66 | 257 | 0.9 | 3.5 | 0.00 | 0.00 | 0.00 | 61 | 1020.8 |
| 20260509174529 | 65 | 298 | 0.0 | 3.5 | 0.00 | 0.00 | 0.00 | 62 | 1021.0 |
| 20260509173020 | 64 | 217 | 0.9 | 2.6 | 0.00 | 0.00 | 0.00 | 64 | 1020.9 |
| 20260509171535 | 63 | 216 | 1.7 | 2.6 | 0.00 | 0.00 | 0.00 | 67 | 1021.1 |
| 20260509170026 | 62 | 302 | 0.9 | 1.7 | 0.00 | 0.00 | 0.00 | 68 | 1021.4 |
| 20260509164528 | 61 | 8 | 0.9 | 3.5 | 0.00 | 0.00 | 0.00 | 71 | 1021.5 |
| 20260509163027 | 60 | 65 | 0.0 | 0.9 | 0.00 | 0.00 | 0.00 | 74 | 1021.6 |
| 20260509161530 | 58 | 65 | 0.0 | 1.7 | 0.00 | 0.00 | 0.00 | 77 | 1021.7 |
| 20260509160022 | 55 | 115 | 0.0 | 2.6 | 0.00 | 0.00 | 0.00 | 81 | 1022.0 |
| 20260509154523 | 55 | 6 | 0.0 | 2.6 | 0.00 | 0.00 | 0.00 | 82 | 1022.2 |
| 20260509153028 | 54 | 172 | 0.0 | 0.9 | 0.00 | 0.00 | 0.00 | 83 | 1022.1 |
| 20260509151526 | 52 | 229 | 0.0 | 0.9 | 0.00 | 0.00 | 0.00 | 85 | 1022.1 |
| 20260509150010 | 50 | 229 | 0.0 | 0.9 | 0.00 | 0.00 | 0.00 | 87 | 1022.4 |
| 20260509144507 | 48 | 229 | 0.0 | 0.0 | 0.00 | 0.00 | 0.00 | 88 | 1022.5 |
| 20260509143008 | 47 | 229 | 0.0 | 0.0 | 0.00 | 0.00 | 0.00 | 91 | 1022.6 |
| 20260509141519 | 44 | 229 | 0.0 | 0.0 | 0.00 | 0.00 | 0.00 | 95 | 1022.7 |
| 20260509140010 | 42 | 229 | 0.0 | 0.0 | 0.00 | 0.00 | 0.00 | 96 | 1022.5 |
| 20260509134513 | 40 | 229 | 0.0 | 0.0 | 0.00 | 0.00 | 0.00 | 96 | 1022.4 |
| 20260509133009 | 40 | 229 | 0.0 | 0.0 | 0.00 | 0.00 | 0.00 | 95 | 1022.4 |
| 20260509131517 | 40 | 229 | 0.0 | 0.0 | 0.00 | 0.00 | 0.00 | 95 | 1022.4 |
| 20260509130013 | 40 | 229 | 0.0 | 0.0 | 0.00 | 0.00 | 0.00 | 95 | 1022.5 |
| 20260509124514 | 40 | 229 | 0.0 | 0.0 | 0.00 | 0.00 | 0.00 | 95 | 1022.5 |
| 20260509123015 | 40 | 229 | 0.0 | 0.0 | 0.00 | 0.00 | 0.00 | 95 | 1022.7 |
| 20260509121517 | 40 | 229 | 0.0 | 0.0 | 0.00 | 0.00 | 0.00 | 95 | 1022.8 |
| 20260509120014 | 41 | 229 | 0.0 | 0.0 | 0.00 | 0.00 | 0.00 | 95 | 1022.7 |
| 20260509114515 | 41 | 229 | 0.0 | 0.0 | 0.00 | 0.00 | 0.00 | 94 | 1022.7 |
| 20260509113018 | 41 | 229 | 0.0 | 0.0 | 0.00 | 0.00 | 0.00 | 94 | 1022.8 |
| 20260509111517 | 42 | 229 | 0.0 | 0.0 | 0.00 | 0.00 | 0.00 | 95 | 1023.0 |
| 20260509110006 | 42 | 229 | 0.0 | 0.0 | 0.00 | 0.00 | 0.00 | 94 | 1023.1 |
| 20260509104529 | 43 | 229 | 0.0 | 0.0 | 0.00 | 0.00 | 0.00 | 94 | 1023.1 |
| 20260509103016 | 43 | 229 | 0.0 | 0.0 | 0.00 | 0.00 | 0.00 | 94 | 1023.1 |
| 20260509101520 | 44 | 229 | 0.0 | 0.0 | 0.00 | 0.00 | 0.00 | 94 | 1023.2 |
| 20260509100029 | 44 | 229 | 0.0 | 0.0 | 0.00 | 0.00 | 0.00 | 94 | 1023.2 |
| 20260509094517 | 44 | 229 | 0.0 | 0.0 | 0.00 | 0.00 | 0.00 | 93 | 1023.3 |
| 20260509093017 | 45 | 229 | 0.0 | 0.0 | 0.00 | 0.00 | 0.00 | 93 | 1023.4 |
| 20260509091519 | 46 | 229 | 0.0 | 0.0 | 0.00 | 0.00 | 0.00 | 93 | 1023.4 |
| 20260509090018 | 47 | 229 | 0.0 | 0.0 | 0.00 | 0.00 | 0.00 | 92 | 1023.5 |
| 20260509084518 | 47 | 229 | 0.0 | 0.0 | 0.00 | 0.00 | 0.00 | 91 | 1023.5 |
| 20260509083016 | 48 | 229 | 0.0 | 0.0 | 0.00 | 0.00 | 0.00 | 90 | 1023.6 |